Time;durP1;ratioP1;P1;durP2;ratioP2;P2;SDS_P1;SDS_P2;PMS_P1;PMS_P2;Temp;Humidity;BMP_temperature;BMP_pressure;BME280_temperature;BME280_humidity;BME280_pressure;Samples;Min_cycle;Max_cycle;Signal;HPM_P1;HPM_P2
2022/07/08 00:00:15;;;;;;;7.40;2.97;;;14.50;98.60;;;;;;4998862;28;20446;-61
2022/07/08 00:02:42;;;;;;;6.70;2.40;;;14.60;98.60;;;;;;5013085;28;20448;-61
2022/07/08 00:05:11;;;;;;;11.57;3.50;;;14.50;98.60;;;;;;5013450;28;20442;-60
2022/07/08 00:07:38;;;;;;;12.37;3.70;;;14.50;98.60;;;;;;5013437;28;20480;-60
2022/07/08 00:10:07;;;;;;;10.07;3.40;;;14.50;98.70;;;;;;5013029;28;20442;-61
2022/07/08 00:12:34;;;;;;;9.70;3.10;;;14.50;98.70;;;;;;5012760;28;20457;-61
2022/07/08 00:15:02;;;;;;;9.87;2.90;;;14.50;98.60;;;;;;5012983;28;20884;-61
2022/07/08 00:17:29;;;;;;;10.33;3.00;;;14.50;98.50;;;;;;5013086;28;20500;-61
2022/07/08 00:19:56;;;;;;;5.33;2.13;;;14.50;98.40;;;;;;5013383;28;20445;-61
2022/07/08 00:22:26;;;;;;;8.83;2.30;;;14.40;98.30;;;;;;5012403;28;20544;-61
2022/07/08 00:24:54;;;;;;;11.47;2.87;;;14.40;98.30;;;;;;5013919;28;20485;-61
2022/07/08 00:27:21;;;;;;;6.90;2.67;;;14.40;98.30;;;;;;5017019;28;20938;-61
2022/07/08 00:29:49;;;;;;;7.40;2.87;;;14.30;98.40;;;;;;5017238;28;20514;-61
2022/07/08 00:32:16;;;;;;;10.20;3.00;;;14.30;98.50;;;;;;5017269;28;20544;-61
2022/07/08 00:34:43;;;;;;;10.80;3.40;;;14.30;98.50;;;;;;5016303;28;20478;-60
2022/07/08 00:37:11;;;;;;;8.33;2.87;;;14.30;98.50;;;;;;5016957;28;20446;-61
2022/07/08 00:39:40;;;;;;;10.90;2.60;;;14.30;98.50;;;;;;5016866;28;20450;-60
2022/07/08 00:42:07;;;;;;;9.00;2.50;;;14.30;98.50;;;;;;5016699;28;20523;-61
2022/07/08 00:44:35;;;;;;;9.23;2.30;;;14.20;98.50;;;;;;5016543;28;20449;-61
2022/07/08 00:47:02;;;;;;;9.13;2.70;;;14.20;98.60;;;;;;5017082;28;20507;-61
2022/07/08 00:49:29;;;;;;;14.27;3.00;;;14.20;98.60;;;;;;5016560;28;20466;-60
2022/07/08 00:51:58;;;;;;;8.80;3.20;;;14.10;98.70;;;;;;5016762;28;20493;-61
2022/07/08 00:54:26;;;;;;;9.47;4.23;;;14.10;98.80;;;;;;5016686;28;20568;-60
2022/07/08 00:56:55;;;;;;;10.30;2.57;;;14.00;98.90;;;;;;4997051;28;20509;-61
2022/07/08 00:59:23;;;;;;;14.20;3.27;;;14.00;99.00;;;;;;5012490;28;20864;-61
2022/07/08 01:01:51;;;;;;;8.33;2.73;;;14.00;99.20;;;;;;5016222;28;20875;-61
2022/07/08 01:04:18;;;;;;;16.27;3.37;;;13.90;99.20;;;;;;5015833;28;20476;-61
2022/07/08 01:06:46;;;;;;;6.73;2.30;;;13.90;99.20;;;;;;5016559;28;20507;-60
2022/07/08 01:09:15;;;;;;;10.60;3.00;;;13.80;99.30;;;;;;5016115;28;20470;-60
2022/07/08 01:11:45;;;;;;;8.00;2.60;;;13.80;99.50;;;;;;5016439;28;20454;-60
2022/07/08 01:14:15;;;;;;;7.43;2.23;;;13.80;99.70;;;;;;5015888;28;20858;-61
2022/07/08 01:16:42;;;;;;;6.10;2.80;;;13.70;99.70;;;;;;5016475;28;20871;-61
2022/07/08 01:19:10;;;;;;;10.17;3.23;;;13.70;99.90;;;;;;5016454;28;20531;-61
2022/07/08 01:21:39;;;;;;;5.20;2.73;;;13.70;99.90;;;;;;5015881;28;20441;-61
2022/07/08 01:24:06;;;;;;;12.53;2.73;;;13.70;99.90;;;;;;5016157;28;21020;-61
2022/07/08 01:26:34;;;;;;;8.00;2.50;;;13.70;99.90;;;;;;5016470;28;20446;-61
2022/07/08 01:29:01;;;;;;;8.33;2.43;;;13.70;99.90;;;;;;5016006;28;20544;-61
2022/07/08 01:31:29;;;;;;;6.87;3.20;;;13.70;99.90;;;;;;5015850;28;21012;-61
2022/07/08 01:33:56;;;;;;;7.73;2.83;;;13.60;99.90;;;;;;5016072;28;20500;-61
2022/07/08 01:36:23;;;;;;;6.53;2.43;;;13.60;99.90;;;;;;5015144;28;20478;-61
2022/07/08 01:38:52;;;;;;;14.03;2.70;;;13.60;99.90;;;;;;5015724;28;20557;-61
2022/07/08 01:41:19;;;;;;;6.47;2.20;;;13.70;99.90;;;;;;5016374;28;20508;-60
2022/07/08 01:43:47;;;;;;;4.73;2.23;;;13.70;99.90;;;;;;5015518;28;20454;-61
2022/07/08 01:46:14;;;;;;;6.33;2.60;;;13.80;99.80;;;;;;5017331;28;20538;-60
2022/07/08 01:48:41;;;;;;;9.30;2.40;;;13.80;99.80;;;;;;5017833;28;20466;-60
2022/07/08 01:51:09;;;;;;;10.00;2.60;;;13.80;99.70;;;;;;5015670;28;20449;-61
2022/07/08 01:53:36;;;;;;;10.20;3.00;;;13.80;99.70;;;;;;5015285;28;20534;-60
2022/07/08 01:56:05;;;;;;;7.37;2.30;;;13.80;99.80;;;;;;5015541;28;20625;-60
2022/07/08 01:58:33;;;;;;;9.37;2.63;;;13.80;99.90;;;;;;5015308;28;20994;-61
2022/07/08 02:01:00;;;;;;;11.73;2.80;;;13.70;99.90;;;;;;5015241;28;20865;-61
2022/07/08 02:03:27;;;;;;;8.33;2.70;;;13.70;99.90;;;;;;5015359;28;20450;-61
2022/07/08 02:05:54;;;;;;;6.13;2.37;;;13.60;99.90;;;;;;5015308;28;20454;-60
2022/07/08 02:08:23;;;;;;;13.37;2.80;;;13.60;99.90;;;;;;5015090;28;20894;-61
2022/07/08 02:13:37;;;;;;;8.97;3.83;;;13.40;99.90;;;;;;5015101;28;20807;-61
2022/07/08 02:16:04;;;;;;;10.53;2.70;;;13.50;99.90;;;;;;5015640;28;20477;-60
2022/07/08 02:18:32;;;;;;;9.53;2.63;;;13.40;99.90;;;;;;5015274;28;20466;-60
2022/07/08 02:20:59;;;;;;;16.07;2.87;;;13.40;99.90;;;;;;5015465;28;20488;-60
2022/07/08 02:23:26;;;;;;;11.90;2.57;;;13.40;99.90;;;;;;5015032;28;20442;-61
2022/07/08 02:25:53;;;;;;;7.90;1.90;;;13.40;99.90;;;;;;5016479;28;20438;-61
2022/07/08 02:28:21;;;;;;;10.63;2.57;;;13.40;99.90;;;;;;5015792;28;20517;-61
2022/07/08 02:30:49;;;;;;;8.93;2.33;;;13.40;99.90;;;;;;5015902;28;20446;-60
2022/07/08 02:33:17;;;;;;;5.17;2.27;;;13.40;99.90;;;;;;5015895;28;20942;-61
2022/07/08 02:35:44;;;;;;;7.80;3.17;;;13.40;99.90;;;;;;5014967;28;20477;-61
2022/07/08 02:38:11;;;;;;;9.40;3.30;;;13.50;99.90;;;;;;5014768;28;20469;-61
2022/07/08 02:40:39;;;;;;;4.60;2.30;;;13.40;99.90;;;;;;5014159;28;20533;-60
2022/07/08 02:43:09;;;;;;;7.77;2.90;;;13.40;99.90;;;;;;5014088;28;20508;-61
2022/07/08 02:45:38;;;;;;;10.57;3.33;;;13.30;99.90;;;;;;5014352;28;20442;-61
2022/07/08 02:48:07;;;;;;;7.47;2.50;;;13.30;99.90;;;;;;5013469;28;20462;-62
2022/07/08 02:50:35;;;;;;;6.90;2.60;;;13.30;99.90;;;;;;5014288;28;20446;-60
2022/07/08 02:53:02;;;;;;;10.70;2.20;;;13.30;99.90;;;;;;5013964;28;20992;-60
2022/07/08 02:55:29;;;;;;;6.30;2.33;;;13.20;99.90;;;;;;5014459;28;20473;-62
2022/07/08 02:57:57;;;;;;;11.60;2.63;;;13.20;99.90;;;;;;5013988;28;20479;-60
2022/07/08 03:00:24;;;;;;;7.40;2.80;;;13.10;99.90;;;;;;5014288;28;20446;-60
2022/07/08 03:02:51;;;;;;;6.60;2.77;;;13.10;99.90;;;;;;5014325;28;20797;-61
2022/07/08 03:05:20;;;;;;;7.63;2.97;;;13.10;99.90;;;;;;4998579;28;20453;-61
2022/07/08 03:07:48;;;;;;;9.17;2.60;;;13.10;99.90;;;;;;5014013;28;20552;-62
2022/07/08 03:10:15;;;;;;;9.00;2.17;;;13.10;99.90;;;;;;5014187;28;20446;-62
2022/07/08 03:12:42;;;;;;;10.00;2.50;;;13.10;99.90;;;;;;5013944;28;20972;-61
2022/07/08 03:15:10;;;;;;;9.50;2.30;;;13.10;99.90;;;;;;5014171;28;20655;-61
2022/07/08 03:17:38;;;;;;;11.90;2.37;;;13.10;99.90;;;;;;5014933;28;20473;-60
2022/07/08 03:20:06;;;;;;;11.67;2.57;;;13.10;99.90;;;;;;5014271;28;20956;-60
2022/07/08 03:22:35;;;;;;;8.53;3.27;;;13.10;99.90;;;;;;5018479;28;20857;-61
2022/07/08 03:25:02;;;;;;;14.10;2.77;;;13.10;99.90;;;;;;5023464;28;20549;-61
2022/07/08 03:27:30;;;;;;;7.27;3.30;;;13.10;99.90;;;;;;5024164;28;20515;-61
2022/07/08 03:29:57;;;;;;;6.10;2.10;;;13.20;99.90;;;;;;5025233;28;20450;-60
2022/07/08 03:32:25;;;;;;;10.57;3.00;;;13.20;99.90;;;;;;5020355;28;20473;-61
2022/07/08 03:34:53;;;;;;;7.00;2.63;;;13.20;99.90;;;;;;4997634;28;20447;-62
2022/07/08 03:37:20;;;;;;;8.10;2.13;;;13.30;99.90;;;;;;5015407;28;20533;-61
2022/07/08 03:39:50;;;;;;;11.33;2.80;;;13.30;99.90;;;;;;5016261;28;20508;-61
2022/07/08 03:42:16;;;;;;;7.80;2.53;;;13.30;99.90;;;;;;5016438;28;20537;-61
2022/07/08 03:44:44;;;;;;;6.57;2.53;;;13.40;99.90;;;;;;5014396;28;20934;-61
2022/07/08 03:47:11;;;;;;;9.03;2.33;;;13.40;99.90;;;;;;5014273;28;20496;-61
2022/07/08 03:49:39;;;;;;;9.30;2.60;;;13.40;99.90;;;;;;5013954;28;20450;-61
2022/07/08 03:52:06;;;;;;;8.20;2.80;;;13.50;99.90;;;;;;5013681;28;20500;-61
2022/07/08 03:54:34;;;;;;;9.13;2.07;;;13.50;99.90;;;;;;5013392;28;20454;-61
2022/07/08 03:57:03;;;;;;;9.70;2.23;;;13.50;99.90;;;;;;5013474;28;20581;-61
2022/07/08 03:59:30;;;;;;;7.03;2.77;;;13.60;99.90;;;;;;5039093;23;20946;-65
2022/07/08 04:01:57;;;;;;;6.33;2.13;;;13.70;99.90;;;;;;5015501;28;20796;-67
2022/07/08 04:04:24;;;;;;;10.90;2.53;;;13.70;99.90;;;;;;5016295;28;20997;-66
2022/07/08 04:09:57;;;;;;;6.47;2.50;;;13.80;99.90;;;;;;5112760;27;20588;-68
2022/07/08 04:12:25;;;;;;;7.50;2.30;;;13.90;99.90;;;;;;5097173;28;20853;-68
2022/07/08 04:14:52;;;;;;;7.60;2.13;;;13.90;99.90;;;;;;5075970;28;20452;-67
2022/07/08 04:17:19;;;;;;;9.87;2.73;;;14.00;99.90;;;;;;5089518;28;20482;-67
2022/07/08 04:19:46;;;;;;;7.80;2.40;;;14.00;99.90;;;;;;5092967;28;20497;-68
2022/07/08 04:22:14;;;;;;;7.60;2.40;;;14.00;99.90;;;;;;5092210;28;20500;-67
2022/07/08 04:24:41;;;;;;;11.90;2.70;;;14.10;99.90;;;;;;5090949;28;20443;-68
2022/07/08 04:27:10;;;;;;;5.97;2.13;;;14.10;99.90;;;;;;5091170;28;20447;-67
2022/07/08 04:29:37;;;;;;;10.40;2.10;;;14.10;99.90;;;;;;5091520;28;20883;-67
2022/07/08 04:32:05;;;;;;;9.90;2.00;;;14.20;99.90;;;;;;5090751;28;20492;-66
2022/07/08 04:34:33;;;;;;;8.63;2.50;;;14.20;99.90;;;;;;5090688;28;20477;-68
2022/07/08 04:37:00;;;;;;;8.03;2.40;;;14.20;99.90;;;;;;5091887;28;20501;-67
2022/07/08 04:39:27;;;;;;;9.80;2.17;;;14.20;99.90;;;;;;5091800;28;20525;-68
2022/07/08 04:41:55;;;;;;;8.50;2.17;;;14.30;99.90;;;;;;5090986;28;20508;-68
2022/07/08 04:44:23;;;;;;;7.90;2.20;;;14.30;99.90;;;;;;5090759;28;20454;-67
2022/07/08 04:46:51;;;;;;;6.83;2.17;;;14.30;99.90;;;;;;5091662;28;20446;-67
2022/07/08 04:49:18;;;;;;;7.20;2.40;;;14.40;99.90;;;;;;5091420;28;20539;-66
2022/07/08 04:51:45;;;;;;;6.20;1.90;;;14.40;99.90;;;;;;5091286;28;20815;-68
2022/07/08 04:54:13;;;;;;;6.30;1.93;;;14.40;99.90;;;;;;5090818;28;20487;-67
2022/07/08 04:56:40;;;;;;;8.13;2.73;;;14.40;99.90;;;;;;5093229;28;20438;-67
2022/07/08 04:59:08;;;;;;;7.07;2.43;;;14.40;99.90;;;;;;5095300;28;20516;-66
2022/07/08 05:01:37;;;;;;;6.03;2.07;;;14.50;99.90;;;;;;5095191;28;20438;-65
2022/07/08 05:04:04;;;;;;;8.00;2.50;;;14.50;99.90;;;;;;5095848;28;20805;-66
2022/07/08 05:06:32;;;;;;;7.80;2.77;;;14.50;99.90;;;;;;5094604;28;20443;-67
2022/07/08 05:08:59;;;;;;;7.90;1.93;;;14.60;99.90;;;;;;5094381;28;20478;-67
2022/07/08 05:11:26;;;;;;;5.20;2.00;;;14.60;99.80;;;;;;5093980;28;20498;-67
2022/07/08 05:13:54;;;;;;;7.80;2.07;;;14.70;99.60;;;;;;5095721;28;20438;-66
2022/07/08 05:16:21;;;;;;;6.23;2.37;;;14.70;99.40;;;;;;5083322;28;20489;-67
2022/07/08 05:18:50;;;;;;;7.60;2.10;;;14.70;99.20;;;;;;5070615;28;20485;-67
2022/07/08 05:21:17;;;;;;;4.27;1.70;;;14.70;99.00;;;;;;5075862;28;20443;-66
2022/07/08 05:23:44;;;;;;;7.13;2.50;;;14.80;99.00;;;;;;5072969;28;20450;-66
2022/07/08 05:26:12;;;;;;;6.07;1.90;;;14.80;99.00;;;;;;5076726;28;20493;-67
2022/07/08 05:28:39;;;;;;;9.30;2.50;;;14.80;98.70;;;;;;5076890;28;20550;-67
2022/07/08 05:31:06;;;;;;;6.37;2.10;;;14.90;98.50;;;;;;5077035;28;20470;-67
2022/07/08 05:33:34;;;;;;;4.83;2.27;;;14.90;98.30;;;;;;5079811;28;20455;-67
2022/07/08 05:36:03;;;;;;;7.53;2.00;;;14.90;98.00;;;;;;5079201;28;20443;-67
2022/07/08 05:38:30;;;;;;;5.07;2.10;;;14.90;97.90;;;;;;5081041;28;20455;-67
2022/07/08 05:40:58;;;;;;;6.00;2.00;;;14.90;97.80;;;;;;5080820;28;20450;-67
2022/07/08 05:43:25;;;;;;;6.07;2.07;;;14.90;97.70;;;;;;5082785;28;20473;-67
2022/07/08 05:45:52;;;;;;;10.53;2.37;;;15.00;97.60;;;;;;5080471;28;20508;-68
2022/07/08 05:48:21;;;;;;;9.10;2.20;;;15.00;97.50;;;;;;5079770;28;20491;-65
2022/07/08 05:50:49;;;;;;;7.03;2.97;;;15.00;97.50;;;;;;5079085;28;20872;-67
2022/07/08 05:53:17;;;;;;;5.20;1.80;;;15.10;97.50;;;;;;5073449;28;20448;-67
2022/07/08 05:55:45;;;;;;;8.10;2.10;;;15.10;97.20;;;;;;5057639;28;20456;-66
2022/07/08 05:58:12;;;;;;;9.20;2.30;;;15.20;97.00;;;;;;5056671;28;20463;-66
2022/07/08 06:00:40;;;;;;;5.57;1.63;;;15.20;96.70;;;;;;5056240;28;20444;-67
2022/07/08 06:03:07;;;;;;;6.00;2.00;;;15.20;96.40;;;;;;5073720;28;20447;-67
2022/07/08 06:05:34;;;;;;;4.30;1.70;;;15.30;96.30;;;;;;5075902;28;20469;-67
2022/07/08 06:08:01;;;;;;;4.47;2.23;;;15.40;96.20;;;;;;5075625;28;20556;-67
2022/07/08 06:10:30;;;;;;;3.90;1.40;;;15.40;95.80;;;;;;5079325;28;20558;-67
2022/07/08 06:12:58;;;;;;;3.40;1.50;;;15.50;95.50;;;;;;5076338;28;20455;-67
2022/07/08 06:15:25;;;;;;;8.27;2.23;;;15.50;95.40;;;;;;5077308;28;20500;-67
2022/07/08 06:17:53;;;;;;;6.30;2.30;;;15.60;95.30;;;;;;5077520;28;20478;-66
2022/07/08 06:20:21;;;;;;;10.50;2.27;;;15.70;95.10;;;;;;5076680;28;20455;-67
2022/07/08 06:22:49;;;;;;;8.23;1.83;;;15.80;94.70;;;;;;5077055;28;20447;-65
2022/07/08 06:25:16;;;;;;;5.60;1.70;;;15.80;94.40;;;;;;5077130;28;20454;-68
2022/07/08 06:27:45;;;;;;;4.13;2.27;;;15.90;94.00;;;;;;5075109;28;20448;-67
2022/07/08 06:30:13;;;;;;;6.70;2.40;;;16.00;93.80;;;;;;5075902;28;20524;-68
2022/07/08 06:32:41;;;;;;;5.43;2.30;;;16.10;93.50;;;;;;5075140;28;20942;-68
2022/07/08 06:35:08;;;;;;;7.33;2.60;;;16.20;92.90;;;;;;5056283;28;20480;-67
2022/07/08 06:37:36;;;;;;;8.37;2.43;;;16.20;92.60;;;;;;5072485;28;20454;-68
2022/07/08 06:40:04;;;;;;;8.53;2.10;;;16.30;92.00;;;;;;5075787;28;20463;-67
2022/07/08 06:42:31;;;;;;;6.20;1.83;;;16.40;91.90;;;;;;5075309;28;20501;-68
2022/07/08 06:45:00;;;;;;;7.80;1.97;;;16.40;91.70;;;;;;5075005;28;20495;-66
2022/07/08 06:47:27;;;;;;;7.80;2.23;;;16.60;91.50;;;;;;5073979;28;20443;-66
2022/07/08 06:49:55;;;;;;;5.70;2.00;;;16.70;90.70;;;;;;5075357;28;20885;-70
2022/07/08 06:52:23;;;;;;;5.70;1.97;;;16.70;90.00;;;;;;5076269;28;20823;-70
2022/07/08 06:54:50;;;;;;;9.13;2.40;;;16.80;89.60;;;;;;5076149;28;20543;-70
2022/07/08 06:57:18;;;;;;;4.40;1.60;;;16.90;89.30;;;;;;5075738;28;20447;-71
2022/07/08 06:59:45;;;;;;;6.43;1.70;;;17.00;88.40;;;;;;5075489;28;20900;-69
2022/07/08 07:02:14;;;;;;;6.13;1.73;;;17.00;86.50;;;;;;5076057;28;20455;-64
2022/07/08 07:04:42;;;;;;;6.17;2.43;;;17.00;85.90;;;;;;5075257;28;20672;-63
2022/07/08 07:07:09;;;;;;;5.03;1.70;;;16.90;84.90;;;;;;5075013;28;20439;-63
2022/07/08 07:09:38;;;;;;;5.10;1.70;;;16.90;84.80;;;;;;5074238;28;20487;-62
2022/07/08 07:12:07;;;;;;;6.63;2.00;;;16.90;84.70;;;;;;5074874;28;20521;-63
2022/07/08 07:14:34;;;;;;;4.43;1.37;;;16.90;84.00;;;;;;5075185;28;20475;-63
2022/07/08 07:17:02;;;;;;;6.93;2.63;;;17.00;83.40;;;;;;5075707;28;20459;-63
2022/07/08 07:19:31;;;;;;;6.13;2.10;;;17.00;82.60;;;;;;5077609;28;20455;-63
2022/07/08 07:21:59;;;;;;;7.17;2.10;;;17.10;82.40;;;;;;5077087;28;20516;-62
2022/07/08 07:24:27;;;;;;;7.67;2.10;;;17.20;82.00;;;;;;5078407;28;20808;-70
2022/07/08 07:26:54;;;;;;;7.10;1.93;;;17.30;81.50;;;;;;5075423;28;20546;-69
2022/07/08 07:29:22;;;;;;;6.73;2.00;;;17.30;80.80;;;;;;5074693;28;20895;-68
2022/07/08 07:31:49;;;;;;;6.63;1.37;;;17.30;79.00;;;;;;5074326;28;20447;-66
2022/07/08 07:34:16;;;;;;;8.80;1.77;;;17.30;78.30;;;;;;5076325;28;20451;-64
2022/07/08 07:36:45;;;;;;;8.27;1.60;;;17.30;77.60;;;;;;5075668;28;20477;-63
2022/07/08 07:39:13;;;;;;;4.73;1.30;;;17.40;76.20;;;;;;5076649;28;20474;-63
2022/07/08 07:41:41;;;;;;;6.93;1.83;;;17.40;75.30;;;;;;5075216;28;20497;-66
2022/07/08 07:44:08;;;;;;;4.20;1.20;;;17.40;75.10;;;;;;5074982;28;20539;-68
2022/07/08 07:46:36;;;;;;;5.73;2.10;;;17.40;75.00;;;;;;5074527;28;20454;-63
2022/07/08 07:49:04;;;;;;;6.00;1.97;;;17.40;75.80;;;;;;5074319;28;20479;-66
2022/07/08 07:51:32;;;;;;;8.13;2.20;;;17.50;75.40;;;;;;5074054;28;20483;-65
2022/07/08 07:54:01;;;;;;;3.70;1.67;;;17.70;75.20;;;;;;5074607;28;20497;-63
2022/07/08 07:56:29;;;;;;;4.83;2.00;;;17.70;74.50;;;;;;5074751;28;20470;-63
2022/07/08 07:58:56;;;;;;;3.60;1.40;;;17.70;75.10;;;;;;5074914;28;20475;-62
2022/07/08 08:01:23;;;;;;;3.43;1.47;;;17.80;74.80;;;;;;5075881;28;20485;-64
2022/07/08 08:03:51;;;;;;;7.60;2.10;;;18.00;74.50;;;;;;5077137;28;20474;-65
2022/07/08 08:06:19;;;;;;;4.43;1.50;;;18.10;74.40;;;;;;5077332;28;20438;-64
2022/07/08 08:08:46;;;;;;;6.93;1.93;;;18.30;74.40;;;;;;5078576;28;20543;-63
2022/07/08 08:11:15;;;;;;;4.63;1.60;;;18.50;72.80;;;;;;5079762;28;20534;-64
2022/07/08 08:13:42;;;;;;;4.73;1.57;;;18.60;71.80;;;;;;5066897;28;20984;-65
2022/07/08 08:16:09;;;;;;;4.03;2.23;;;18.60;70.90;;;;;;5065585;28;20456;-65
2022/07/08 08:18:37;;;;;;;3.20;1.50;;;18.50;70.70;;;;;;5057123;28;20479;-65
2022/07/08 08:21:04;;;;;;;3.53;1.73;;;18.30;71.00;;;;;;5063334;28;20935;-65
2022/07/08 08:23:32;;;;;;;8.57;2.10;;;18.20;71.80;;;;;;5076748;28;20477;-64
2022/07/08 08:25:59;;;;;;;5.27;2.20;;;18.20;72.20;;;;;;5077764;28;20447;-62
2022/07/08 08:28:28;;;;;;;8.27;1.63;;;18.40;72.00;;;;;;5079283;28;20979;-61
2022/07/08 08:30:55;;;;;;;8.00;2.20;;;18.60;71.00;;;;;;5076727;28;20487;-63
2022/07/08 08:33:22;;;;;;;7.33;1.97;;;18.80;69.90;;;;;;5077054;28;20443;-61
2022/07/08 08:35:50;;;;;;;7.60;2.10;;;18.80;69.10;;;;;;5074840;28;20447;-62
2022/07/08 08:38:17;;;;;;;6.17;2.20;;;18.60;69.70;;;;;;5075463;28;20492;-63
2022/07/08 08:40:47;;;;;;;4.77;1.50;;;18.50;70.20;;;;;;5076319;28;20463;-61
2022/07/08 08:43:14;;;;;;;5.22;1.92;;;18.50;70.40;;;;;;5073913;28;20509;-63
2022/07/08 08:45:44;;;;;;;4.60;2.07;;;18.70;70.40;;;;;;5076165;28;20644;-63
2022/07/08 08:48:12;;;;;;;5.00;2.00;;;18.90;69.80;;;;;;5075826;28;20982;-63
2022/07/08 08:50:56;;;;;;;3.27;1.47;;;19.10;68.70;;;;;;5060114;28;20503;-63
2022/07/08 08:53:27;;;;;;;4.50;1.73;;;19.40;67.10;;;;;;5055593;28;20432;-62
2022/07/08 08:55:55;;;;;;;7.40;2.30;;;19.40;66.00;;;;;;5058587;28;20428;-64
2022/07/08 08:58:23;;;;;;;4.87;1.90;;;19.30;65.70;;;;;;5077080;28;20475;-64
2022/07/08 09:00:52;;;;;;;4.03;1.50;;;19.30;66.20;;;;;;5063882;28;20513;-62
2022/07/08 09:03:20;;;;;;;2.40;1.50;;;19.40;66.00;;;;;;5060889;28;20452;-63
2022/07/08 09:05:48;;;;;;;3.17;1.80;;;19.50;64.70;;;;;;5059814;28;20487;-62
2022/07/08 09:08:15;;;;;;;3.90;1.60;;;19.60;64.10;;;;;;5069393;28;20478;-62
2022/07/08 09:10:43;;;;;;;6.67;2.30;;;19.70;63.10;;;;;;5080996;28;20518;-63
2022/07/08 09:13:12;;;;;;;5.87;2.03;;;19.80;62.70;;;;;;5076170;28;20493;-60
2022/07/08 09:15:40;;;;;;;5.87;1.90;;;19.80;62.10;;;;;;5079294;28;20442;-62
2022/07/08 09:18:11;;;;;;;3.67;1.33;;;19.70;62.30;;;;;;5073185;28;20486;-64
2022/07/08 09:20:42;;;;;;;9.83;1.97;;;19.50;62.10;;;;;;5058878;28;20946;-60
2022/07/08 09:23:12;;;;;;;7.57;2.00;;;19.50;62.30;;;;;;5058085;28;20441;-62
2022/07/08 09:25:39;;;;;;;5.20;1.70;;;19.60;62.50;;;;;;5057723;28;20435;-62
2022/07/08 09:28:07;;;;;;;2.07;1.37;;;19.80;61.60;;;;;;5057835;28;20257;-59
2022/07/08 09:30:34;;;;;;;3.30;1.93;;;20.10;60.50;;;;;;5064827;28;20471;-62
2022/07/08 09:33:02;;;;;;;7.53;1.90;;;20.30;59.90;;;;;;5078401;28;20465;-60
2022/07/08 09:35:36;;;;;;;5.33;1.67;;;20.60;59.10;;;;;;5077480;28;20488;-62
2022/07/08 09:38:06;;;;;;;10.27;2.23;;;20.80;58.20;;;;;;5077246;28;20479;-62
2022/07/08 09:40:33;;;;;;;4.27;1.33;;;20.90;57.60;;;;;;5075912;28;20463;-61
2022/07/08 09:43:02;;;;;;;4.40;1.63;;;20.90;57.30;;;;;;5077164;28;20444;-62
2022/07/08 09:45:34;;;;;;;4.93;1.67;;;20.70;57.40;;;;;;5077511;28;20454;-63
2022/07/08 09:48:05;;;;;;;4.23;1.40;;;20.70;58.10;;;;;;5077396;28;20509;-62
2022/07/08 09:50:36;;;;;;;5.80;2.03;;;20.90;58.00;;;;;;5076749;28;20518;-62
2022/07/08 09:53:13;;;;;;;5.97;2.03;;;20.90;57.70;;;;;;5076895;28;20421;-61
2022/07/08 09:55:42;;;;;;;6.03;1.70;;;20.80;58.00;;;;;;5076785;28;20897;-62
2022/07/08 10:00:35;;;;;;;6.10;2.37;;;21.10;57.40;;;;;;5056421;22;20485;-57
2022/07/08 10:03:04;;;;;;;4.07;1.40;;;21.40;56.90;;;;;;5035292;28;20506;-58
2022/07/08 10:05:34;;;;;;;8.97;2.10;;;21.60;56.20;;;;;;5034363;28;20442;-58
2022/07/08 10:08:02;;;;;;;7.23;1.90;;;21.90;55.90;;;;;;5034852;28;20506;-58
2022/07/08 10:10:29;;;;;;;3.70;1.90;;;22.20;55.30;;;;;;5034809;28;21029;-58
2022/07/08 10:12:59;;;;;;;4.27;1.30;;;22.20;54.50;;;;;;5034561;28;20531;-58
2022/07/08 10:15:27;;;;;;;4.03;1.80;;;22.10;54.40;;;;;;5034368;28;20453;-57
2022/07/08 10:17:56;;;;;;;3.80;1.67;;;22.00;54.70;;;;;;5035395;28;20455;-57
2022/07/08 10:20:27;;;;;;;3.07;2.00;;;22.00;54.90;;;;;;5034602;28;20469;-58
2022/07/08 10:23:00;;;;;;;5.60;2.67;;;21.70;54.60;;;;;;5036302;28;20531;-58
2022/07/08 10:25:29;;;;;;;5.93;1.60;;;21.30;55.20;;;;;;5038334;28;20467;-58
2022/07/08 10:28:05;;;;;;;7.90;1.93;;;21.00;56.00;;;;;;5034446;28;20910;-58
2022/07/08 10:30:47;;;;;;;9.03;1.90;;;20.80;56.70;;;;;;5034214;28;20479;-58
2022/07/08 10:33:24;;;;;;;7.27;2.37;;;20.80;57.20;;;;;;5034260;28;20429;-57
2022/07/08 10:36:08;;;;;;;3.60;1.80;;;20.90;57.40;;;;;;5034466;28;20512;-57
2022/07/08 10:38:38;;;;;;;6.73;2.10;;;21.00;57.30;;;;;;5038423;28;20472;-57
2022/07/08 10:41:08;;;;;;;4.33;1.50;;;21.10;57.10;;;;;;5039211;28;20434;-57
2022/07/08 10:43:36;;;;;;;4.57;1.87;;;21.10;57.10;;;;;;5034576;28;20544;-59
2022/07/08 10:46:14;;;;;;;5.03;2.10;;;21.10;57.00;;;;;;5033811;28;20537;-57
2022/07/08 10:48:55;;;;;;;5.57;2.07;;;21.10;57.40;;;;;;5033916;28;20504;-57
2022/07/08 10:51:45;;;;;;;3.83;2.13;;;21.00;57.70;;;;;;5033660;28;20461;-58
2022/07/08 10:54:27;;;;;;;3.40;1.97;;;20.90;58.10;;;;;;5034189;28;20422;-58
2022/07/08 10:56:56;;;;;;;3.93;1.63;;;20.80;58.50;;;;;;5034448;28;20434;-58
2022/07/08 10:59:25;;;;;;;2.87;2.10;;;20.70;58.80;;;;;;5033819;28;20569;-59
2022/07/08 11:01:54;;;;;;;5.03;1.77;;;20.90;58.90;;;;;;5033861;28;20474;-58
2022/07/08 11:04:22;;;;;;;4.90;2.20;;;21.10;58.50;;;;;;5033701;28;20483;-58
2022/07/08 11:06:50;;;;;;;7.23;2.27;;;21.40;58.00;;;;;;5034001;28;20445;-58
2022/07/08 11:09:18;;;;;;;3.40;2.00;;;21.50;57.50;;;;;;5033887;28;20569;-59
2022/07/08 11:11:47;;;;;;;3.83;2.37;;;21.60;57.40;;;;;;5034403;28;20576;-59
2022/07/08 11:14:15;;;;;;;4.03;2.20;;;21.70;57.10;;;;;;5033673;28;20483;-59
2022/07/08 11:16:43;;;;;;;4.50;2.13;;;21.70;57.20;;;;;;5033512;28;20453;-58
2022/07/08 11:19:10;;;;;;;3.60;1.80;;;21.90;57.20;;;;;;5038357;28;20525;-59
2022/07/08 11:21:37;;;;;;;4.60;1.83;;;22.10;56.90;;;;;;5038445;28;20452;-57
2022/07/08 11:24:05;;;;;;;3.37;1.70;;;22.20;56.30;;;;;;5035870;28;20458;-59
2022/07/08 11:26:32;;;;;;;5.17;2.30;;;22.10;56.20;;;;;;5036038;28;20894;-57
2022/07/08 11:29:01;;;;;;;3.50;2.07;;;21.90;56.70;;;;;;5035553;28;20892;-57
2022/07/08 11:31:29;;;;;;;3.93;2.30;;;21.80;57.00;;;;;;5036262;28;20552;-58
2022/07/08 11:33:56;;;;;;;4.60;1.80;;;21.80;57.20;;;;;;5034779;28;20460;-57
2022/07/08 11:36:23;;;;;;;3.10;1.47;;;21.90;57.30;;;;;;5036150;28;20447;-56
2022/07/08 11:38:51;;;;;;;5.07;1.83;;;21.90;57.40;;;;;;5035536;28;20466;-58
2022/07/08 11:41:20;;;;;;;4.33;1.70;;;21.60;57.50;;;;;;5033733;28;20930;-57
2022/07/08 11:43:50;;;;;;;3.97;1.90;;;21.40;58.20;;;;;;5034357;28;20476;-56
2022/07/08 11:46:23;;;;;;;4.63;1.60;;;21.20;58.90;;;;;;5033103;28;20923;-58
2022/07/08 11:48:50;;;;;;;6.07;1.90;;;21.20;59.30;;;;;;5032443;28;20566;-56
2022/07/08 11:51:18;;;;;;;5.07;2.20;;;21.10;59.50;;;;;;5032259;28;20523;-58
2022/07/08 11:53:45;;;;;;;6.10;2.17;;;20.90;60.00;;;;;;5033133;28;20818;-56
2022/07/08 11:56:13;;;;;;;7.03;3.20;;;20.80;60.70;;;;;;5032384;28;21012;-57
2022/07/08 11:58:40;;;;;;;9.80;2.77;;;20.80;61.10;;;;;;5032470;28;20469;-58
2022/07/08 12:01:08;;;;;;;2.67;2.10;;;20.80;61.50;;;;;;5032947;28;20528;-59
2022/07/08 12:03:37;;;;;;;4.90;1.97;;;20.90;61.70;;;;;;5032868;28;20499;-57
2022/07/08 12:06:05;;;;;;;5.30;2.40;;;21.00;61.70;;;;;;5033025;28;20440;-59
2022/07/08 12:08:41;;;;;;;4.93;2.20;;;21.40;61.30;;;;;;5033157;28;20458;-60
2022/07/08 12:11:16;;;;;;;5.53;1.90;;;21.70;60.50;;;;;;5033182;28;20532;-59
2022/07/08 12:13:44;;;;;;;5.63;2.13;;;22.00;59.80;;;;;;5033152;28;20541;-57
2022/07/08 12:16:12;;;;;;;5.30;2.60;;;22.10;59.40;;;;;;5033219;28;20449;-60
2022/07/08 12:18:45;;;;;;;4.67;2.00;;;22.10;59.30;;;;;;5032692;28;20556;-58
2022/07/08 12:21:20;;;;;;;7.87;2.37;;;22.10;59.50;;;;;;5032545;28;20442;-58
2022/07/08 12:23:56;;;;;;;5.87;2.20;;;22.10;59.60;;;;;;5032527;28;20456;-58
2022/07/08 12:26:23;;;;;;;3.93;2.00;;;22.10;59.60;;;;;;5032669;28;20435;-57
2022/07/08 12:28:51;;;;;;;2.60;2.00;;;22.10;59.80;;;;;;5032344;28;20508;-59
2022/07/08 12:31:35;;;;;;;3.90;2.40;;;22.20;59.60;;;;;;5035665;28;20567;-58
2022/07/08 12:34:04;;;;;;;3.27;1.93;;;22.20;59.80;;;;;;5039115;28;20997;-57
2022/07/08 12:36:32;;;;;;;7.23;2.00;;;22.10;59.80;;;;;;5036465;28;20479;-55
2022/07/08 12:39:10;;;;;;;3.50;1.47;;;22.20;59.90;;;;;;5036008;28;20944;-57
2022/07/08 12:41:38;;;;;;;2.87;1.60;;;22.10;60.00;;;;;;5036001;28;20427;-58
2022/07/08 12:44:33;;;;;;;3.13;1.70;;;22.10;60.50;;;;;;5038417;28;20518;-59
2022/07/08 12:47:01;;;;;;;3.60;1.60;;;22.00;61.20;;;;;;5038152;28;20490;-59
2022/07/08 12:49:32;;;;;;;3.30;1.63;;;21.90;61.30;;;;;;5037010;28;20886;-58
2022/07/08 12:52:00;;;;;;;2.70;1.87;;;22.00;61.50;;;;;;5037088;28;20531;-58
2022/07/08 12:54:28;;;;;;;3.07;1.73;;;22.00;61.50;;;;;;5036393;28;20470;-59
2022/07/08 12:56:57;;;;;;;4.60;2.60;;;22.10;61.30;;;;;;5036732;28;20449;-57
2022/07/08 12:59:24;;;;;;;4.93;2.00;;;22.30;61.10;;;;;;5036839;28;21064;-58